sensor_id;sensor_type;location;lat;lon;timestamp;P1;durP1;ratioP1;P2;durP2;ratioP2
10458;SDS011;5277;48.722;8.736;2022-10-16T00:00:30;8.02;;;2.13;;
10458;SDS011;5277;48.722;8.736;2022-10-16T00:02:56;23.05;;;3.10;;
10458;SDS011;5277;48.722;8.736;2022-10-16T00:05:22;10.55;;;2.30;;
10458;SDS011;5277;48.722;8.736;2022-10-16T00:07:47;20.05;;;2.63;;
10458;SDS011;5277;48.722;8.736;2022-10-16T00:10:13;26.00;;;3.22;;
10458;SDS011;5277;48.722;8.736;2022-10-16T00:12:38;14.80;;;2.55;;
10458;SDS011;5277;48.722;8.736;2022-10-16T00:15:04;16.95;;;2.55;;
10458;SDS011;5277;48.722;8.736;2022-10-16T00:17:31;13.13;;;2.20;;
10458;SDS011;5277;48.722;8.736;2022-10-16T00:19:57;4.65;;;2.13;;
10458;SDS011;5277;48.722;8.736;2022-10-16T00:22:23;6.78;;;2.53;;
10458;SDS011;5277;48.722;8.736;2022-10-16T00:24:49;11.55;;;2.65;;
10458;SDS011;5277;48.722;8.736;2022-10-16T00:27:15;10.02;;;2.35;;
10458;SDS011;5277;48.722;8.736;2022-10-16T00:29:41;4.97;;;2.33;;
10458;SDS011;5277;48.722;8.736;2022-10-16T00:32:07;12.77;;;2.63;;
10458;SDS011;5277;48.722;8.736;2022-10-16T00:34:33;12.80;;;2.28;;
10458;SDS011;5277;48.722;8.736;2022-10-16T00:36:59;7.97;;;2.72;;
10458;SDS011;5277;48.722;8.736;2022-10-16T00:39:24;6.45;;;2.40;;
10458;SDS011;5277;48.722;8.736;2022-10-16T00:41:50;18.23;;;2.97;;
10458;SDS011;5277;48.722;8.736;2022-10-16T00:47:19;9.95;;;2.50;;
10458;SDS011;5277;48.722;8.736;2022-10-16T00:50:44;13.38;;;2.60;;
10458;SDS011;5277;48.722;8.736;2022-10-16T00:52:48;7.63;;;2.58;;
10458;SDS011;5277;48.722;8.736;2022-10-16T00:55:16;8.63;;;2.60;;
10458;SDS011;5277;48.722;8.736;2022-10-16T00:57:42;9.85;;;2.47;;
10458;SDS011;5277;48.722;8.736;2022-10-16T01:00:09;5.82;;;2.55;;
10458;SDS011;5277;48.722;8.736;2022-10-16T01:02:38;12.00;;;2.35;;
10458;SDS011;5277;48.722;8.736;2022-10-16T01:05:03;21.42;;;2.90;;
10458;SDS011;5277;48.722;8.736;2022-10-16T01:10:31;7.53;;;2.83;;
10458;SDS011;5277;48.722;8.736;2022-10-16T01:13:07;11.68;;;2.40;;
10458;SDS011;5277;48.722;8.736;2022-10-16T01:15:45;24.70;;;3.13;;
10458;SDS011;5277;48.722;8.736;2022-10-16T01:21:08;19.85;;;2.55;;
10458;SDS011;5277;48.722;8.736;2022-10-16T01:23:58;11.25;;;2.70;;
10458;SDS011;5277;48.722;8.736;2022-10-16T01:26:50;11.15;;;2.72;;
10458;SDS011;5277;48.722;8.736;2022-10-16T01:32:35;8.65;;;2.85;;
10458;SDS011;5277;48.722;8.736;2022-10-16T01:35:23;14.05;;;2.35;;
10458;SDS011;5277;48.722;8.736;2022-10-16T01:38:00;8.82;;;2.15;;
10458;SDS011;5277;48.722;8.736;2022-10-16T01:40:32;8.18;;;2.00;;
10458;SDS011;5277;48.722;8.736;2022-10-16T01:43:00;33.72;;;3.83;;
10458;SDS011;5277;48.722;8.736;2022-10-16T01:45:31;9.18;;;2.00;;
10458;SDS011;5277;48.722;8.736;2022-10-16T01:48:00;18.75;;;2.85;;
10458;SDS011;5277;48.722;8.736;2022-10-16T01:50:29;9.73;;;3.03;;
10458;SDS011;5277;48.722;8.736;2022-10-16T01:52:58;11.60;;;2.50;;
10458;SDS011;5277;48.722;8.736;2022-10-16T01:55:28;16.88;;;2.40;;
10458;SDS011;5277;48.722;8.736;2022-10-16T01:57:57;16.10;;;2.38;;
10458;SDS011;5277;48.722;8.736;2022-10-16T02:00:24;8.85;;;1.98;;
10458;SDS011;5277;48.722;8.736;2022-10-16T02:02:51;8.45;;;2.30;;
10458;SDS011;5277;48.722;8.736;2022-10-16T02:08:03;9.68;;;2.30;;
10458;SDS011;5277;48.722;8.736;2022-10-16T02:10:29;11.15;;;2.85;;
10458;SDS011;5277;48.722;8.736;2022-10-16T02:13:00;9.95;;;2.55;;
10458;SDS011;5277;48.722;8.736;2022-10-16T02:15:30;14.32;;;2.08;;
10458;SDS011;5277;48.722;8.736;2022-10-16T02:17:56;10.55;;;2.28;;
10458;SDS011;5277;48.722;8.736;2022-10-16T02:20:23;17.05;;;2.65;;
10458;SDS011;5277;48.722;8.736;2022-10-16T02:22:52;10.40;;;2.45;;
10458;SDS011;5277;48.722;8.736;2022-10-16T02:25:24;17.02;;;2.92;;
10458;SDS011;5277;48.722;8.736;2022-10-16T02:28:40;14.02;;;3.03;;
10458;SDS011;5277;48.722;8.736;2022-10-16T02:30:55;16.42;;;2.72;;
10458;SDS011;5277;48.722;8.736;2022-10-16T02:33:24;20.92;;;3.10;;
10458;SDS011;5277;48.722;8.736;2022-10-16T02:35:52;10.50;;;2.92;;
10458;SDS011;5277;48.722;8.736;2022-10-16T02:38:19;10.23;;;2.50;;
10458;SDS011;5277;48.722;8.736;2022-10-16T02:40:46;7.38;;;2.08;;
10458;SDS011;5277;48.722;8.736;2022-10-16T02:43:12;5.43;;;1.80;;
10458;SDS011;5277;48.722;8.736;2022-10-16T02:45:38;13.30;;;2.35;;
10458;SDS011;5277;48.722;8.736;2022-10-16T02:48:04;18.08;;;2.63;;
10458;SDS011;5277;48.722;8.736;2022-10-16T02:50:30;3.63;;;1.63;;
10458;SDS011;5277;48.722;8.736;2022-10-16T02:52:56;3.10;;;1.65;;
10458;SDS011;5277;48.722;8.736;2022-10-16T02:55:22;8.60;;;1.88;;
10458;SDS011;5277;48.722;8.736;2022-10-16T02:57:47;7.50;;;2.00;;
10458;SDS011;5277;48.722;8.736;2022-10-16T03:00:14;10.32;;;1.92;;
10458;SDS011;5277;48.722;8.736;2022-10-16T03:02:41;8.57;;;1.75;;
10458;SDS011;5277;48.722;8.736;2022-10-16T03:05:07;10.88;;;2.17;;
10458;SDS011;5277;48.722;8.736;2022-10-16T03:07:33;14.35;;;2.53;;
10458;SDS011;5277;48.722;8.736;2022-10-16T03:09:59;9.57;;;3.17;;
10458;SDS011;5277;48.722;8.736;2022-10-16T03:12:25;9.73;;;2.63;;
10458;SDS011;5277;48.722;8.736;2022-10-16T03:14:52;11.60;;;2.20;;
10458;SDS011;5277;48.722;8.736;2022-10-16T03:17:18;5.28;;;1.77;;
10458;SDS011;5277;48.722;8.736;2022-10-16T03:19:43;11.43;;;1.92;;
10458;SDS011;5277;48.722;8.736;2022-10-16T03:22:09;4.05;;;2.05;;
10458;SDS011;5277;48.722;8.736;2022-10-16T03:24:35;10.30;;;2.10;;
10458;SDS011;5277;48.722;8.736;2022-10-16T03:27:00;12.07;;;2.90;;
10458;SDS011;5277;48.722;8.736;2022-10-16T03:29:26;4.53;;;1.70;;
10458;SDS011;5277;48.722;8.736;2022-10-16T03:31:54;8.80;;;1.67;;
10458;SDS011;5277;48.722;8.736;2022-10-16T03:34:20;11.65;;;2.30;;
10458;SDS011;5277;48.722;8.736;2022-10-16T03:36:46;20.67;;;2.55;;
10458;SDS011;5277;48.722;8.736;2022-10-16T03:39:11;9.82;;;2.05;;
10458;SDS011;5277;48.722;8.736;2022-10-16T03:41:37;15.13;;;2.05;;
10458;SDS011;5277;48.722;8.736;2022-10-16T03:44:03;16.90;;;2.40;;
10458;SDS011;5277;48.722;8.736;2022-10-16T03:46:28;4.55;;;1.90;;
10458;SDS011;5277;48.722;8.736;2022-10-16T03:48:54;5.35;;;1.88;;
10458;SDS011;5277;48.722;8.736;2022-10-16T03:51:20;14.35;;;1.92;;
10458;SDS011;5277;48.722;8.736;2022-10-16T03:53:46;19.73;;;2.25;;
10458;SDS011;5277;48.722;8.736;2022-10-16T03:56:11;12.40;;;1.83;;
10458;SDS011;5277;48.722;8.736;2022-10-16T03:58:37;5.55;;;1.65;;
10458;SDS011;5277;48.722;8.736;2022-10-16T04:01:03;9.15;;;2.03;;
10458;SDS011;5277;48.722;8.736;2022-10-16T04:03:28;7.93;;;1.75;;
10458;SDS011;5277;48.722;8.736;2022-10-16T04:05:54;11.02;;;1.98;;
10458;SDS011;5277;48.722;8.736;2022-10-16T04:08:20;22.02;;;2.20;;
10458;SDS011;5277;48.722;8.736;2022-10-16T04:10:46;15.65;;;2.47;;
10458;SDS011;5277;48.722;8.736;2022-10-16T04:13:12;12.30;;;2.17;;
10458;SDS011;5277;48.722;8.736;2022-10-16T04:15:38;14.15;;;2.75;;
10458;SDS011;5277;48.722;8.736;2022-10-16T04:18:04;6.28;;;1.92;;
10458;SDS011;5277;48.722;8.736;2022-10-16T04:20:30;6.38;;;1.90;;
10458;SDS011;5277;48.722;8.736;2022-10-16T04:22:56;7.40;;;2.35;;
10458;SDS011;5277;48.722;8.736;2022-10-16T04:25:21;13.80;;;2.65;;
10458;SDS011;5277;48.722;8.736;2022-10-16T04:27:47;8.00;;;2.20;;
10458;SDS011;5277;48.722;8.736;2022-10-16T04:30:13;8.60;;;2.35;;
10458;SDS011;5277;48.722;8.736;2022-10-16T04:32:39;5.32;;;2.20;;
10458;SDS011;5277;48.722;8.736;2022-10-16T04:35:05;11.75;;;2.58;;
10458;SDS011;5277;48.722;8.736;2022-10-16T04:37:30;13.95;;;2.75;;
10458;SDS011;5277;48.722;8.736;2022-10-16T04:39:56;10.23;;;2.53;;
10458;SDS011;5277;48.722;8.736;2022-10-16T04:42:22;7.53;;;2.45;;
10458;SDS011;5277;48.722;8.736;2022-10-16T04:44:47;4.38;;;1.92;;
10458;SDS011;5277;48.722;8.736;2022-10-16T04:47:13;12.52;;;2.00;;
10458;SDS011;5277;48.722;8.736;2022-10-16T04:49:39;8.50;;;2.72;;
10458;SDS011;5277;48.722;8.736;2022-10-16T04:52:05;12.40;;;2.40;;
10458;SDS011;5277;48.722;8.736;2022-10-16T04:54:31;8.15;;;2.33;;
10458;SDS011;5277;48.722;8.736;2022-10-16T04:56:56;8.10;;;2.33;;
10458;SDS011;5277;48.722;8.736;2022-10-16T04:59:22;15.73;;;2.63;;
10458;SDS011;5277;48.722;8.736;2022-10-16T05:01:51;9.43;;;2.50;;
10458;SDS011;5277;48.722;8.736;2022-10-16T05:04:17;4.25;;;1.90;;
10458;SDS011;5277;48.722;8.736;2022-10-16T05:06:42;9.65;;;2.58;;
10458;SDS011;5277;48.722;8.736;2022-10-16T05:09:08;6.22;;;2.20;;
10458;SDS011;5277;48.722;8.736;2022-10-16T05:11:34;8.88;;;2.05;;
10458;SDS011;5277;48.722;8.736;2022-10-16T05:14:00;8.25;;;1.90;;
10458;SDS011;5277;48.722;8.736;2022-10-16T05:16:26;14.52;;;2.65;;
10458;SDS011;5277;48.722;8.736;2022-10-16T05:18:52;10.80;;;2.38;;
10458;SDS011;5277;48.722;8.736;2022-10-16T05:21:17;14.80;;;2.65;;
10458;SDS011;5277;48.722;8.736;2022-10-16T05:23:43;11.40;;;2.10;;
10458;SDS011;5277;48.722;8.736;2022-10-16T05:26:09;12.00;;;2.65;;
10458;SDS011;5277;48.722;8.736;2022-10-16T05:28:35;7.45;;;2.42;;
10458;SDS011;5277;48.722;8.736;2022-10-16T05:31:04;7.93;;;1.92;;
10458;SDS011;5277;48.722;8.736;2022-10-16T05:33:31;10.38;;;2.13;;
10458;SDS011;5277;48.722;8.736;2022-10-16T05:36:00;6.35;;;2.42;;
10458;SDS011;5277;48.722;8.736;2022-10-16T05:38:27;7.70;;;2.30;;
10458;SDS011;5277;48.722;8.736;2022-10-16T05:40:52;7.20;;;1.95;;
10458;SDS011;5277;48.722;8.736;2022-10-16T05:43:18;9.15;;;2.47;;
10458;SDS011;5277;48.722;8.736;2022-10-16T05:45:52;7.65;;;2.25;;
10458;SDS011;5277;48.722;8.736;2022-10-16T05:48:19;4.72;;;2.00;;
10458;SDS011;5277;48.722;8.736;2022-10-16T05:50:44;4.95;;;1.92;;
10458;SDS011;5277;48.722;8.736;2022-10-16T05:53:10;7.68;;;2.00;;
10458;SDS011;5277;48.722;8.736;2022-10-16T05:55:36;12.05;;;2.75;;
10458;SDS011;5277;48.722;8.736;2022-10-16T05:58:01;12.23;;;2.33;;
10458;SDS011;5277;48.722;8.736;2022-10-16T06:00:27;16.20;;;2.58;;
10458;SDS011;5277;48.722;8.736;2022-10-16T06:02:53;18.05;;;2.67;;
10458;SDS011;5277;48.722;8.736;2022-10-16T06:05:19;14.15;;;2.53;;
10458;SDS011;5277;48.722;8.736;2022-10-16T06:07:44;4.63;;;1.92;;
10458;SDS011;5277;48.722;8.736;2022-10-16T06:10:10;3.70;;;1.75;;
10458;SDS011;5277;48.722;8.736;2022-10-16T06:12:35;11.55;;;2.03;;
10458;SDS011;5277;48.722;8.736;2022-10-16T06:15:01;2.88;;;1.75;;
10458;SDS011;5277;48.722;8.736;2022-10-16T06:17:27;6.28;;;1.83;;
10458;SDS011;5277;48.722;8.736;2022-10-16T06:19:52;7.72;;;2.00;;
10458;SDS011;5277;48.722;8.736;2022-10-16T06:22:18;9.65;;;2.25;;
10458;SDS011;5277;48.722;8.736;2022-10-16T06:24:44;20.35;;;2.40;;
10458;SDS011;5277;48.722;8.736;2022-10-16T06:27:11;12.27;;;2.42;;
10458;SDS011;5277;48.722;8.736;2022-10-16T06:29:37;4.30;;;2.25;;
10458;SDS011;5277;48.722;8.736;2022-10-16T06:32:02;6.57;;;2.17;;
10458;SDS011;5277;48.722;8.736;2022-10-16T06:34:28;10.30;;;2.30;;
10458;SDS011;5277;48.722;8.736;2022-10-16T06:36:54;7.93;;;2.22;;
10458;SDS011;5277;48.722;8.736;2022-10-16T06:39:20;7.05;;;2.22;;
10458;SDS011;5277;48.722;8.736;2022-10-16T06:41:45;11.30;;;2.13;;
10458;SDS011;5277;48.722;8.736;2022-10-16T06:44:11;3.30;;;2.08;;
10458;SDS011;5277;48.722;8.736;2022-10-16T06:46:37;5.90;;;2.05;;
10458;SDS011;5277;48.722;8.736;2022-10-16T06:49:02;7.32;;;2.35;;
10458;SDS011;5277;48.722;8.736;2022-10-16T06:51:28;5.15;;;2.30;;
10458;SDS011;5277;48.722;8.736;2022-10-16T06:53:55;8.07;;;2.30;;
10458;SDS011;5277;48.722;8.736;2022-10-16T06:56:24;7.10;;;2.55;;
10458;SDS011;5277;48.722;8.736;2022-10-16T06:58:52;7.07;;;2.50;;
10458;SDS011;5277;48.722;8.736;2022-10-16T07:01:19;4.13;;;2.20;;
10458;SDS011;5277;48.722;8.736;2022-10-16T07:03:47;2.55;;;2.08;;
10458;SDS011;5277;48.722;8.736;2022-10-16T07:06:14;8.32;;;2.05;;
10458;SDS011;5277;48.722;8.736;2022-10-16T07:08:43;6.28;;;1.90;;
10458;SDS011;5277;48.722;8.736;2022-10-16T07:11:11;5.05;;;2.17;;
10458;SDS011;5277;48.722;8.736;2022-10-16T07:13:39;9.05;;;2.25;;
10458;SDS011;5277;48.722;8.736;2022-10-16T07:16:07;4.53;;;1.98;;
10458;SDS011;5277;48.722;8.736;2022-10-16T07:18:34;10.43;;;2.65;;
10458;SDS011;5277;48.722;8.736;2022-10-16T07:21:04;4.45;;;2.10;;
10458;SDS011;5277;48.722;8.736;2022-10-16T07:23:37;9.02;;;2.35;;
10458;SDS011;5277;48.722;8.736;2022-10-16T07:26:03;5.90;;;2.03;;
10458;SDS011;5277;48.722;8.736;2022-10-16T07:28:30;5.25;;;2.22;;
10458;SDS011;5277;48.722;8.736;2022-10-16T07:31:00;6.95;;;2.40;;
10458;SDS011;5277;48.722;8.736;2022-10-16T07:33:31;5.03;;;2.67;;
10458;SDS011;5277;48.722;8.736;2022-10-16T07:35:58;7.05;;;2.65;;
10458;SDS011;5277;48.722;8.736;2022-10-16T07:38:23;10.50;;;2.25;;
10458;SDS011;5277;48.722;8.736;2022-10-16T07:40:55;8.38;;;2.20;;
10458;SDS011;5277;48.722;8.736;2022-10-16T07:43:25;9.52;;;2.08;;
10458;SDS011;5277;48.722;8.736;2022-10-16T07:45:51;5.65;;;2.00;;
10458;SDS011;5277;48.722;8.736;2022-10-16T07:48:18;4.88;;;1.90;;
10458;SDS011;5277;48.722;8.736;2022-10-16T07:50:44;6.05;;;1.70;;
10458;SDS011;5277;48.722;8.736;2022-10-16T07:53:10;9.25;;;2.17;;
10458;SDS011;5277;48.722;8.736;2022-10-16T07:55:36;4.22;;;2.10;;
10458;SDS011;5277;48.722;8.736;2022-10-16T07:58:02;6.30;;;1.90;;
10458;SDS011;5277;48.722;8.736;2022-10-16T08:00:29;5.00;;;2.30;;
10458;SDS011;5277;48.722;8.736;2022-10-16T08:02:56;10.55;;;2.00;;
10458;SDS011;5277;48.722;8.736;2022-10-16T08:05:28;7.45;;;2.85;;
10458;SDS011;5277;48.722;8.736;2022-10-16T08:07:56;4.45;;;2.85;;
10458;SDS011;5277;48.722;8.736;2022-10-16T08:10:23;5.80;;;1.98;;
10458;SDS011;5277;48.722;8.736;2022-10-16T08:12:50;19.77;;;2.85;;
10458;SDS011;5277;48.722;8.736;2022-10-16T08:15:16;9.32;;;2.17;;
10458;SDS011;5277;48.722;8.736;2022-10-16T08:17:42;5.72;;;2.22;;
10458;SDS011;5277;48.722;8.736;2022-10-16T08:20:08;15.23;;;2.13;;
10458;SDS011;5277;48.722;8.736;2022-10-16T08:22:34;9.85;;;1.98;;
10458;SDS011;5277;48.722;8.736;2022-10-16T08:25:00;6.57;;;1.90;;
10458;SDS011;5277;48.722;8.736;2022-10-16T08:27:30;10.65;;;1.88;;
10458;SDS011;5277;48.722;8.736;2022-10-16T08:29:59;8.57;;;2.10;;
10458;SDS011;5277;48.722;8.736;2022-10-16T08:32:25;7.88;;;2.00;;
10458;SDS011;5277;48.722;8.736;2022-10-16T08:34:51;6.70;;;1.98;;
10458;SDS011;5277;48.722;8.736;2022-10-16T08:37:16;14.93;;;2.35;;
10458;SDS011;5277;48.722;8.736;2022-10-16T08:39:42;13.95;;;2.60;;
10458;SDS011;5277;48.722;8.736;2022-10-16T08:50:52;18.92;;;2.00;;
10458;SDS011;5277;48.722;8.736;2022-10-16T08:53:24;7.40;;;1.88;;
10458;SDS011;5277;48.722;8.736;2022-10-16T08:56:01;6.65;;;2.10;;
10458;SDS011;5277;48.722;8.736;2022-10-16T08:58:28;7.95;;;1.80;;
10458;SDS011;5277;48.722;8.736;2022-10-16T09:00:59;5.43;;;1.88;;
10458;SDS011;5277;48.722;8.736;2022-10-16T09:09:00;9.13;;;1.90;;
10458;SDS011;5277;48.722;8.736;2022-10-16T09:11:56;3.05;;;1.50;;
10458;SDS011;5277;48.722;8.736;2022-10-16T09:14:36;8.43;;;1.60;;
10458;SDS011;5277;48.722;8.736;2022-10-16T09:17:34;6.45;;;1.40;;
10458;SDS011;5277;48.722;8.736;2022-10-16T09:20:22;11.90;;;2.00;;
10458;SDS011;5277;48.722;8.736;2022-10-16T09:22:50;3.47;;;1.50;;
10458;SDS011;5277;48.722;8.736;2022-10-16T09:25:25;10.00;;;1.70;;
10458;SDS011;5277;48.722;8.736;2022-10-16T09:27:52;5.28;;;1.75;;
10458;SDS011;5277;48.722;8.736;2022-10-16T09:30:19;5.68;;;1.50;;
10458;SDS011;5277;48.722;8.736;2022-10-16T09:32:47;2.28;;;1.40;;
10458;SDS011;5277;48.722;8.736;2022-10-16T09:35:58;2.35;;;1.45;;
10458;SDS011;5277;48.722;8.736;2022-10-16T09:38:22;8.88;;;1.75;;
10458;SDS011;5277;48.722;8.736;2022-10-16T09:41:00;2.78;;;1.55;;
10458;SDS011;5277;48.722;8.736;2022-10-16T09:43:40;5.18;;;1.30;;
10458;SDS011;5277;48.722;8.736;2022-10-16T09:46:22;4.43;;;1.45;;
10458;SDS011;5277;48.722;8.736;2022-10-16T09:49:04;5.28;;;1.58;;
10458;SDS011;5277;48.722;8.736;2022-10-16T09:51:43;6.20;;;1.30;;
10458;SDS011;5277;48.722;8.736;2022-10-16T09:56:34;5.20;;;1.50;;
10458;SDS011;5277;48.722;8.736;2022-10-16T09:59:08;7.25;;;1.70;;
10458;SDS011;5277;48.722;8.736;2022-10-16T10:01:41;5.53;;;1.50;;
10458;SDS011;5277;48.722;8.736;2022-10-16T10:04:16;7.68;;;1.67;;
10458;SDS011;5277;48.722;8.736;2022-10-16T10:06:46;2.35;;;1.52;;
10458;SDS011;5277;48.722;8.736;2022-10-16T10:36:29;7.38;;;1.58;;
10458;SDS011;5277;48.722;8.736;2022-10-16T11:01:16;13.05;;;2.05;;
10458;SDS011;5277;48.722;8.736;2022-10-16T11:06:47;10.18;;;2.10;;
10458;SDS011;5277;48.722;8.736;2022-10-16T11:09:18;8.15;;;1.75;;
10458;SDS011;5277;48.722;8.736;2022-10-16T11:11:51;11.45;;;2.30;;
10458;SDS011;5277;48.722;8.736;2022-10-16T11:14:41;13.07;;;2.30;;
10458;SDS011;5277;48.722;8.736;2022-10-16T11:17:16;11.57;;;2.08;;
10458;SDS011;5277;48.722;8.736;2022-10-16T11:19:58;15.75;;;2.22;;
10458;SDS011;5277;48.722;8.736;2022-10-16T11:27:56;6.72;;;1.50;;
10458;SDS011;5277;48.722;8.736;2022-10-16T11:33:44;14.00;;;1.67;;
10458;SDS011;5277;48.722;8.736;2022-10-16T11:36:19;8.52;;;1.80;;
10458;SDS011;5277;48.722;8.736;2022-10-16T11:38:51;13.27;;;1.77;;
10458;SDS011;5277;48.722;8.736;2022-10-16T11:44:18;6.82;;;1.45;;
10458;SDS011;5277;48.722;8.736;2022-10-16T11:47:24;13.88;;;1.50;;
10458;SDS011;5277;48.722;8.736;2022-10-16T11:55:48;11.25;;;2.30;;
10458;SDS011;5277;48.722;8.736;2022-10-16T12:01:12;10.43;;;2.22;;
10458;SDS011;5277;48.722;8.736;2022-10-16T12:06:40;10.82;;;2.40;;
10458;SDS011;5277;48.722;8.736;2022-10-16T12:09:14;18.98;;;2.22;;
10458;SDS011;5277;48.722;8.736;2022-10-16T12:11:51;11.93;;;1.70;;
10458;SDS011;5277;48.722;8.736;2022-10-16T12:14:18;23.50;;;2.47;;
10458;SDS011;5277;48.722;8.736;2022-10-16T12:19:21;24.92;;;2.85;;
10458;SDS011;5277;48.722;8.736;2022-10-16T12:21:47;17.05;;;2.10;;
10458;SDS011;5277;48.722;8.736;2022-10-16T12:24:27;15.30;;;2.03;;
10458;SDS011;5277;48.722;8.736;2022-10-16T12:27:00;10.15;;;2.70;;
10458;SDS011;5277;48.722;8.736;2022-10-16T12:29:34;13.57;;;2.28;;
10458;SDS011;5277;48.722;8.736;2022-10-16T12:35:04;8.20;;;1.70;;
10458;SDS011;5277;48.722;8.736;2022-10-16T12:37:33;11.77;;;2.50;;
10458;SDS011;5277;48.722;8.736;2022-10-16T12:40:10;7.95;;;1.83;;
10458;SDS011;5277;48.722;8.736;2022-10-16T12:42:57;11.48;;;2.22;;
10458;SDS011;5277;48.722;8.736;2022-10-16T12:45:31;16.77;;;2.80;;
10458;SDS011;5277;48.722;8.736;2022-10-16T12:48:02;11.55;;;2.42;;
10458;SDS011;5277;48.722;8.736;2022-10-16T12:52:58;6.68;;;1.85;;
10458;SDS011;5277;48.722;8.736;2022-10-16T12:55:24;15.20;;;2.08;;
10458;SDS011;5277;48.722;8.736;2022-10-16T13:00:50;12.13;;;2.67;;
10458;SDS011;5277;48.722;8.736;2022-10-16T13:06:48;17.10;;;2.67;;
10458;SDS011;5277;48.722;8.736;2022-10-16T13:09:19;13.35;;;2.35;;
10458;SDS011;5277;48.722;8.736;2022-10-16T13:13:04;19.27;;;3.15;;
10458;SDS011;5277;48.722;8.736;2022-10-16T13:19:02;6.80;;;2.60;;
10458;SDS011;5277;48.722;8.736;2022-10-16T13:21:20;12.20;;;2.55;;
10458;SDS011;5277;48.722;8.736;2022-10-16T13:24:11;12.50;;;2.70;;
10458;SDS011;5277;48.722;8.736;2022-10-16T13:29:17;21.30;;;3.35;;
10458;SDS011;5277;48.722;8.736;2022-10-16T13:31:44;13.82;;;3.28;;
10458;SDS011;5277;48.722;8.736;2022-10-16T13:34:18;18.58;;;3.47;;
10458;SDS011;5277;48.722;8.736;2022-10-16T13:36:47;16.23;;;3.30;;
10458;SDS011;5277;48.722;8.736;2022-10-16T13:39:24;14.30;;;2.72;;
10458;SDS011;5277;48.722;8.736;2022-10-16T13:42:10;11.45;;;3.17;;
10458;SDS011;5277;48.722;8.736;2022-10-16T13:44:43;9.10;;;2.78;;
10458;SDS011;5277;48.722;8.736;2022-10-16T13:47:16;21.67;;;3.47;;
10458;SDS011;5277;48.722;8.736;2022-10-16T13:49:43;16.35;;;3.13;;
10458;SDS011;5277;48.722;8.736;2022-10-16T13:52:17;11.90;;;2.63;;
10458;SDS011;5277;48.722;8.736;2022-10-16T13:54:44;22.77;;;3.78;;
10458;SDS011;5277;48.722;8.736;2022-10-16T13:57:14;21.13;;;3.45;;
10458;SDS011;5277;48.722;8.736;2022-10-16T13:59:40;13.00;;;3.35;;
10458;SDS011;5277;48.722;8.736;2022-10-16T14:04:54;22.25;;;3.15;;
10458;SDS011;5277;48.722;8.736;2022-10-16T14:07:24;16.70;;;2.90;;
10458;SDS011;5277;48.722;8.736;2022-10-16T14:09:52;5.53;;;2.20;;
10458;SDS011;5277;48.722;8.736;2022-10-16T14:12:19;8.80;;;2.65;;
10458;SDS011;5277;48.722;8.736;2022-10-16T14:14:47;30.85;;;4.35;;
10458;SDS011;5277;48.722;8.736;2022-10-16T14:17:16;23.63;;;3.10;;
10458;SDS011;5277;48.722;8.736;2022-10-16T14:19:48;11.93;;;2.55;;
10458;SDS011;5277;48.722;8.736;2022-10-16T14:24:52;29.35;;;3.10;;
10458;SDS011;5277;48.722;8.736;2022-10-16T14:28:19;22.02;;;2.60;;
10458;SDS011;5277;48.722;8.736;2022-10-16T14:30:57;16.10;;;2.90;;
10458;SDS011;5277;48.722;8.736;2022-10-16T14:33:31;18.85;;;3.47;;
10458;SDS011;5277;48.722;8.736;2022-10-16T14:38:39;15.38;;;2.95;;
10458;SDS011;5277;48.722;8.736;2022-10-16T14:41:06;8.90;;;2.03;;
10458;SDS011;5277;48.722;8.736;2022-10-16T14:43:36;14.70;;;2.38;;
10458;SDS011;5277;48.722;8.736;2022-10-16T14:46:14;11.70;;;2.30;;
10458;SDS011;5277;48.722;8.736;2022-10-16T14:48:43;16.65;;;3.22;;
10458;SDS011;5277;48.722;8.736;2022-10-16T14:51:15;7.90;;;2.28;;
10458;SDS011;5277;48.722;8.736;2022-10-16T14:59:15;37.63;;;4.18;;
10458;SDS011;5277;48.722;8.736;2022-10-16T15:01:54;19.98;;;3.20;;
10458;SDS011;5277;48.722;8.736;2022-10-16T15:04:29;17.20;;;3.05;;
10458;SDS011;5277;48.722;8.736;2022-10-16T15:07:20;12.38;;;2.90;;
10458;SDS011;5277;48.722;8.736;2022-10-16T15:09:49;22.52;;;4.03;;
10458;SDS011;5277;48.722;8.736;2022-10-16T15:12:15;24.23;;;3.63;;
10458;SDS011;5277;48.722;8.736;2022-10-16T15:14:58;26.65;;;3.50;;
10458;SDS011;5277;48.722;8.736;2022-10-16T15:17:24;21.05;;;3.50;;
10458;SDS011;5277;48.722;8.736;2022-10-16T15:19:50;44.78;;;4.68;;
10458;SDS011;5277;48.722;8.736;2022-10-16T15:22:16;26.48;;;3.50;;
10458;SDS011;5277;48.722;8.736;2022-10-16T15:24:42;15.60;;;3.28;;
10458;SDS011;5277;48.722;8.736;2022-10-16T15:27:08;8.43;;;3.30;;
10458;SDS011;5277;48.722;8.736;2022-10-16T15:29:34;10.80;;;3.10;;
10458;SDS011;5277;48.722;8.736;2022-10-16T15:31:59;25.17;;;3.83;;
10458;SDS011;5277;48.722;8.736;2022-10-16T15:34:25;15.25;;;3.95;;
10458;SDS011;5277;48.722;8.736;2022-10-16T15:36:50;16.02;;;3.38;;
10458;SDS011;5277;48.722;8.736;2022-10-16T15:39:17;16.73;;;3.33;;
10458;SDS011;5277;48.722;8.736;2022-10-16T15:41:44;20.58;;;3.00;;
10458;SDS011;5277;48.722;8.736;2022-10-16T15:44:15;19.42;;;3.67;;
10458;SDS011;5277;48.722;8.736;2022-10-16T15:46:45;32.65;;;3.72;;
10458;SDS011;5277;48.722;8.736;2022-10-16T15:49:14;19.55;;;3.33;;
10458;SDS011;5277;48.722;8.736;2022-10-16T15:51:40;15.05;;;3.15;;
10458;SDS011;5277;48.722;8.736;2022-10-16T15:54:07;12.13;;;3.10;;
10458;SDS011;5277;48.722;8.736;2022-10-16T15:56:33;13.98;;;3.20;;
10458;SDS011;5277;48.722;8.736;2022-10-16T15:59:02;7.60;;;2.97;;
10458;SDS011;5277;48.722;8.736;2022-10-16T16:01:28;7.22;;;2.47;;
10458;SDS011;5277;48.722;8.736;2022-10-16T16:03:56;9.57;;;3.13;;
10458;SDS011;5277;48.722;8.736;2022-10-16T16:06:22;15.48;;;3.10;;
10458;SDS011;5277;48.722;8.736;2022-10-16T16:09:10;11.73;;;2.80;;
10458;SDS011;5277;48.722;8.736;2022-10-16T16:11:34;8.13;;;3.30;;
10458;SDS011;5277;48.722;8.736;2022-10-16T16:14:03;16.90;;;3.28;;
10458;SDS011;5277;48.722;8.736;2022-10-16T16:16:30;4.88;;;2.83;;
10458;SDS011;5277;48.722;8.736;2022-10-16T16:18:56;8.68;;;3.00;;
10458;SDS011;5277;48.722;8.736;2022-10-16T16:21:22;4.45;;;2.75;;
10458;SDS011;5277;48.722;8.736;2022-10-16T16:23:48;15.02;;;3.80;;
10458;SDS011;5277;48.722;8.736;2022-10-16T16:26:35;16.05;;;4.72;;
10458;SDS011;5277;48.722;8.736;2022-10-16T16:29:03;32.22;;;4.70;;
10458;SDS011;5277;48.722;8.736;2022-10-16T16:31:29;28.05;;;4.35;;
10458;SDS011;5277;48.722;8.736;2022-10-16T16:33:56;25.73;;;4.00;;
10458;SDS011;5277;48.722;8.736;2022-10-16T16:36:23;13.82;;;3.40;;
10458;SDS011;5277;48.722;8.736;2022-10-16T16:38:50;7.93;;;3.85;;
10458;SDS011;5277;48.722;8.736;2022-10-16T16:41:17;17.42;;;4.03;;
10458;SDS011;5277;48.722;8.736;2022-10-16T16:44:03;12.73;;;3.53;;
10458;SDS011;5277;48.722;8.736;2022-10-16T16:46:31;10.35;;;3.10;;
10458;SDS011;5277;48.722;8.736;2022-10-16T16:48:58;10.02;;;3.38;;
10458;SDS011;5277;48.722;8.736;2022-10-16T16:51:24;8.20;;;3.40;;
10458;SDS011;5277;48.722;8.736;2022-10-16T16:53:50;8.70;;;3.15;;
10458;SDS011;5277;48.722;8.736;2022-10-16T16:56:18;15.60;;;3.75;;
10458;SDS011;5277;48.722;8.736;2022-10-16T16:58:44;28.65;;;3.63;;
10458;SDS011;5277;48.722;8.736;2022-10-16T17:01:11;20.38;;;4.45;;
10458;SDS011;5277;48.722;8.736;2022-10-16T17:03:37;17.13;;;3.92;;
10458;SDS011;5277;48.722;8.736;2022-10-16T17:08:33;9.93;;;4.10;;
10458;SDS011;5277;48.722;8.736;2022-10-16T17:10:59;16.17;;;4.32;;
10458;SDS011;5277;48.722;8.736;2022-10-16T17:13:27;19.48;;;4.10;;
10458;SDS011;5277;48.722;8.736;2022-10-16T17:15:54;25.98;;;4.25;;
10458;SDS011;5277;48.722;8.736;2022-10-16T17:18:21;11.52;;;4.28;;
10458;SDS011;5277;48.722;8.736;2022-10-16T17:20:48;16.10;;;4.85;;
10458;SDS011;5277;48.722;8.736;2022-10-16T17:23:14;7.20;;;3.95;;
10458;SDS011;5277;48.722;8.736;2022-10-16T17:25:41;20.23;;;4.43;;
10458;SDS011;5277;48.722;8.736;2022-10-16T17:28:08;19.00;;;4.35;;
10458;SDS011;5277;48.722;8.736;2022-10-16T17:30:37;16.80;;;4.60;;